Time;durP1;ratioP1;P1;durP2;ratioP2;P2;SDS_P1;SDS_P2;PMS_P1;PMS_P2;Temp;Humidity;BMP_temperature;BMP_pressure;BME280_temperature;BME280_humidity;BME280_pressure;Samples;Min_cycle;Max_cycle;Signal;HPM_P1;HPM_P2
2022/08/24 00:02:16;;;;;;;36.72;30.67;;;19.40;99.90;;;;;;6092660;23;20018;-85
2022/08/24 00:04:42;;;;;;;32.95;29.27;;;19.40;99.90;;;;;;6117631;23;20343;-85
2022/08/24 00:07:07;;;;;;;36.92;29.15;;;19.40;99.90;;;;;;6117843;23;20523;-84
2022/08/24 00:09:34;;;;;;;30.42;27.20;;;19.30;99.90;;;;;;6117052;23;20080;-84
2022/08/24 00:12:01;;;;;;;29.92;26.85;;;19.30;99.90;;;;;;6118075;23;20030;-85
2022/08/24 00:14:27;;;;;;;34.00;29.55;;;19.30;99.90;;;;;;6092997;23;20451;-85
2022/08/24 00:16:53;;;;;;;36.40;31.40;;;19.20;99.90;;;;;;6116980;23;20525;-85
2022/08/24 00:19:19;;;;;;;36.05;32.17;;;19.20;99.90;;;;;;6118110;23;20026;-85
2022/08/24 00:21:45;;;;;;;34.53;29.60;;;19.20;99.90;;;;;;6118405;23;20018;-86
2022/08/24 00:24:11;;;;;;;37.95;32.85;;;19.10;99.90;;;;;;6117075;23;20010;-85
2022/08/24 00:26:37;;;;;;;36.80;30.52;;;19.10;99.90;;;;;;6117492;23;20058;-85
2022/08/24 00:29:03;;;;;;;36.25;32.42;;;19.10;99.90;;;;;;6117496;23;20018;-85
2022/08/24 00:31:29;;;;;;;39.10;34.70;;;19.10;99.90;;;;;;6116295;23;20028;-85
2022/08/24 00:33:55;;;;;;;37.78;31.90;;;19.10;99.90;;;;;;6093589;23;20018;-85
2022/08/24 00:36:21;;;;;;;36.90;33.00;;;19.00;99.90;;;;;;6092976;23;20369;-85
2022/08/24 00:38:48;;;;;;;33.22;29.83;;;19.00;99.90;;;;;;6116391;23;20017;-85
2022/08/24 00:41:15;;;;;;;29.20;26.10;;;19.00;99.90;;;;;;6117537;23;20049;-85
2022/08/24 00:43:53;;;;;;;28.65;25.95;;;19.00;99.90;;;;;;6116319;23;20014;-84
2022/08/24 00:46:23;;;;;;;28.50;25.45;;;18.90;99.90;;;;;;6091435;23;20022;-84
2022/08/24 00:48:55;;;;;;;30.80;27.25;;;18.80;99.90;;;;;;6093463;23;20029;-85
2022/08/24 00:51:28;;;;;;;32.58;28.70;;;18.80;99.90;;;;;;6092356;23;20152;-84
2022/08/24 00:54:00;;;;;;;23.80;19.77;;;18.90;99.90;;;;;;6116910;23;20014;-84
2022/08/24 00:56:28;;;;;;;;;;;18.80;99.90;;;;;;6117317;23;20025;-84
2022/08/24 00:59:02;;;;;;;29.20;24.20;;;18.80;99.90;;;;;;6116726;23;19944;-84
2022/08/24 01:01:30;;;;;;;23.50;21.15;;;18.70;99.90;;;;;;6092639;23;20447;-85
2022/08/24 01:03:57;;;;;;;32.10;26.02;;;18.70;99.90;;;;;;6093050;23;20065;-85
2022/08/24 01:06:23;;;;;;;41.03;29.75;;;18.70;99.90;;;;;;6116030;23;20022;-84
2022/08/24 01:08:49;;;;;;;27.38;24.58;;;18.70;99.90;;;;;;6093127;23;20057;-85
2022/08/24 01:11:19;;;;;;;30.13;25.83;;;18.70;99.90;;;;;;6092640;23;20458;-84
2022/08/24 01:13:47;;;;;;;22.42;20.13;;;18.70;99.90;;;;;;6091852;23;20014;-85
2022/08/24 01:18:48;;;;;;;32.65;27.15;;;18.70;99.90;;;;;;6092423;23;20018;-85
2022/08/24 01:19:02;;;;;;;25.00;22.25;;;18.70;99.90;;;;;;6117626;23;20018;-85
2022/08/24 01:21:35;;;;;;;27.40;24.58;;;18.60;99.90;;;;;;6091649;23;20108;-84
2022/08/24 01:24:08;;;;;;;27.15;24.25;;;18.60;99.90;;;;;;6117732;23;20049;-84
2022/08/24 01:26:41;;;;;;;23.42;21.13;;;18.60;99.90;;;;;;6117110;23;20053;-85
2022/08/24 01:29:10;;;;;;;21.92;19.63;;;18.60;99.90;;;;;;6091207;23;20060;-85
2022/08/24 01:31:36;;;;;;;23.48;21.08;;;18.60;99.90;;;;;;6116764;23;20021;-85
2022/08/24 01:34:02;;;;;;;21.67;18.67;;;18.60;99.90;;;;;;6116654;23;20346;-85
2022/08/24 01:36:43;;;;;;;27.67;23.00;;;18.60;99.90;;;;;;6092721;23;20025;-85
2022/08/24 01:39:14;;;;;;;32.35;26.95;;;18.60;99.90;;;;;;6092334;23;20343;-85
2022/08/24 01:41:40;;;;;;;27.30;24.40;;;18.50;99.90;;;;;;6116587;23;20112;-85
2022/08/24 01:44:06;;;;;;;28.35;24.75;;;18.50;99.90;;;;;;6116286;23;20116;-85
2022/08/24 01:46:32;;;;;;;24.10;19.73;;;18.50;99.90;;;;;;6116640;23;20018;-85
2022/08/24 01:48:58;;;;;;;22.33;19.92;;;18.50;99.90;;;;;;6091979;23;20014;-85
2022/08/24 01:51:28;;;;;;;31.42;26.05;;;18.50;99.90;;;;;;6092212;23;20339;-84
2022/08/24 01:53:54;;;;;;;27.83;23.38;;;18.40;99.90;;;;;;6093194;23;20069;-84
2022/08/24 01:56:20;;;;;;;29.67;26.13;;;18.40;99.90;;;;;;6093356;23;20105;-84
2022/08/24 01:58:48;;;;;;;26.80;23.95;;;18.40;99.90;;;;;;6118852;23;20034;-84
2022/08/24 02:01:16;;;;;;;29.27;24.58;;;18.30;99.90;;;;;;6118669;23;20018;-85
2022/08/24 02:03:42;;;;;;;32.60;26.02;;;18.30;99.90;;;;;;6118133;23;20494;-84
2022/08/24 02:06:08;;;;;;;28.02;23.63;;;18.30;99.90;;;;;;6094022;23;20273;-85
2022/08/24 02:08:35;;;;;;;24.90;21.95;;;18.30;99.90;;;;;;6118614;23;20324;-84
2022/08/24 02:11:04;;;;;;;26.17;23.38;;;18.30;99.90;;;;;;6118113;23;20484;-84
2022/08/24 02:13:31;;;;;;;28.05;24.45;;;18.20;99.90;;;;;;6093982;23;20021;-84
2022/08/24 02:15:56;;;;;;;29.02;25.35;;;18.20;99.90;;;;;;6118324;23;20010;-84
2022/08/24 02:18:22;;;;;;;27.45;24.35;;;18.20;99.90;;;;;;6117891;23;20532;-83
2022/08/24 02:20:48;;;;;;;27.58;24.73;;;18.10;99.90;;;;;;6119164;23;20010;-84
2022/08/24 02:23:15;;;;;;;25.73;22.90;;;18.10;99.90;;;;;;6117644;23;20348;-84
2022/08/24 02:25:41;;;;;;;25.90;23.00;;;18.10;99.90;;;;;;6094610;23;20032;-85
2022/08/24 02:28:07;;;;;;;31.90;26.00;;;18.10;99.90;;;;;;6093211;23;20100;-84
2022/08/24 02:30:33;;;;;;;22.92;20.50;;;18.00;99.90;;;;;;6093432;23;20021;-85
2022/08/24 02:33:00;;;;;;;23.25;19.17;;;18.00;99.90;;;;;;6119044;23;20026;-85
2022/08/24 02:35:27;;;;;;;21.45;19.27;;;18.00;99.90;;;;;;6117798;23;20014;-84
2022/08/24 02:37:52;;;;;;;21.58;17.65;;;18.00;99.90;;;;;;6093856;23;20194;-84
2022/08/24 02:40:18;;;;;;;25.42;22.83;;;18.00;99.90;;;;;;6094088;23;20069;-84
2022/08/24 02:42:44;;;;;;;21.85;17.13;;;18.00;99.90;;;;;;6118496;23;20017;-84
2022/08/24 02:45:10;;;;;;;17.73;15.63;;;18.00;99.90;;;;;;6117447;23;20361;-84
2022/08/24 02:47:36;;;;;;;20.70;18.58;;;18.00;99.90;;;;;;6117858;23;20124;-84
2022/08/24 02:50:04;;;;;;;17.80;15.48;;;18.00;99.90;;;;;;6094837;23;20057;-84
2022/08/24 02:52:30;;;;;;;18.95;16.95;;;17.90;99.90;;;;;;6092806;23;20014;-83
2022/08/24 02:54:56;;;;;;;22.85;20.02;;;17.90;99.90;;;;;;6119188;23;20096;-84
2022/08/24 02:57:21;;;;;;;20.60;18.42;;;17.80;99.90;;;;;;6117025;23;20398;-84
2022/08/24 02:59:47;;;;;;;21.38;18.25;;;17.80;99.90;;;;;;6093705;23;20049;-84
2022/08/24 03:02:13;;;;;;;24.00;20.10;;;17.80;99.90;;;;;;6093444;23;20517;-84
2022/08/24 03:04:39;;;;;;;20.83;18.63;;;17.80;99.90;;;;;;6093805;23;20120;-84
2022/08/24 03:07:05;;;;;;;23.02;18.98;;;17.70;99.90;;;;;;6117219;23;20308;-84
2022/08/24 03:09:31;;;;;;;16.35;14.57;;;17.70;99.90;;;;;;6117474;23;20022;-84
2022/08/24 03:11:56;;;;;;;8.68;7.75;;;17.70;99.90;;;;;;6093642;23;20034;-85
2022/08/24 03:14:23;;;;;;;14.30;12.70;;;17.70;99.90;;;;;;6117384;23;20414;-84
2022/08/24 03:16:49;;;;;;;16.63;14.82;;;17.60;99.90;;;;;;6117728;23;20025;-84
2022/08/24 03:19:15;;;;;;;17.23;15.45;;;17.60;99.90;;;;;;6118263;23;20109;-84
2022/08/24 03:21:40;;;;;;;19.90;17.80;;;17.60;99.90;;;;;;6117102;23;20053;-84
2022/08/24 03:24:06;;;;;;;23.75;19.98;;;17.50;99.90;;;;;;6093838;23;20045;-84
2022/08/24 03:26:32;;;;;;;25.35;22.20;;;17.50;99.90;;;;;;6092878;23;20506;-83
2022/08/24 03:28:58;;;;;;;26.67;23.75;;;17.50;99.90;;;;;;6117587;23;20022;-84
2022/08/24 03:31:24;;;;;;;24.13;21.63;;;17.50;99.90;;;;;;6117274;23;20033;-83
2022/08/24 03:33:49;;;;;;;22.92;20.45;;;17.50;99.90;;;;;;6117141;23;20025;-84
2022/08/24 03:36:15;;;;;;;22.42;20.08;;;17.50;99.90;;;;;;6118110;23;20013;-84
2022/08/24 03:38:42;;;;;;;22.55;20.17;;;17.40;99.90;;;;;;6118224;23;20112;-83
2022/08/24 03:41:08;;;;;;;21.92;19.73;;;17.40;99.90;;;;;;6092186;23;20053;-83
2022/08/24 03:43:47;;;;;;;21.77;19.48;;;17.40;99.90;;;;;;6117429;23;20526;-83
2022/08/24 03:46:19;;;;;;;15.27;13.55;;;17.40;99.90;;;;;;6092962;23;20024;-83
2022/08/24 03:48:46;;;;;;;16.63;15.05;;;17.40;99.90;;;;;;6116947;23;20022;-84
2022/08/24 03:51:15;;;;;;;15.10;13.60;;;17.30;99.90;;;;;;6093697;23;20014;-84
2022/08/24 03:53:41;;;;;;;15.57;14.05;;;17.30;99.90;;;;;;6117761;23;20076;-83
2022/08/24 03:56:08;;;;;;;14.43;13.02;;;17.20;99.90;;;;;;6117138;23;20034;-84
2022/08/24 03:58:35;;;;;;;20.25;15.07;;;17.20;99.90;;;;;;6092569;23;20053;-84
2022/08/24 04:01:02;;;;;;;21.77;17.83;;;17.20;99.90;;;;;;6093514;23;20049;-84
2022/08/24 04:03:28;;;;;;;18.08;16.20;;;17.20;99.90;;;;;;6092527;23;20025;-84
2022/08/24 04:05:54;;;;;;;17.95;16.15;;;17.20;99.90;;;;;;6116999;23;20021;-85
2022/08/24 04:08:20;;;;;;;16.95;15.25;;;17.20;99.90;;;;;;6117646;23;20518;-84
2022/08/24 04:10:46;;;;;;;16.00;14.50;;;17.20;99.90;;;;;;6092763;23;20018;-84
2022/08/24 04:13:12;;;;;;;13.95;12.52;;;17.20;99.90;;;;;;6093602;23;20022;-84
2022/08/24 04:15:39;;;;;;;18.30;16.40;;;17.20;99.90;;;;;;6116729;23;20025;-84
2022/08/24 04:18:05;;;;;;;17.75;15.77;;;17.10;99.90;;;;;;6117525;23;20021;-85
2022/08/24 04:20:35;;;;;;;17.60;14.88;;;17.20;99.90;;;;;;6115876;23;20045;-84
2022/08/24 04:23:01;;;;;;;20.42;18.40;;;17.20;99.90;;;;;;6092143;23;20017;-84
2022/08/24 04:25:27;;;;;;;20.73;18.05;;;17.10;99.90;;;;;;6093413;23;20022;-84
2022/08/24 04:27:53;;;;;;;16.40;14.60;;;17.10;99.90;;;;;;6092294;23;20018;-84
2022/08/24 04:30:18;;;;;;;21.20;18.90;;;17.10;99.90;;;;;;6092780;23;20072;-83
2022/08/24 04:32:44;;;;;;;24.75;19.90;;;17.10;99.90;;;;;;6091926;23;20022;-83
2022/08/24 04:35:10;;;;;;;24.58;19.90;;;17.10;99.90;;;;;;6091671;23;20018;-83
2022/08/24 04:37:36;;;;;;;20.65;18.50;;;17.00;99.90;;;;;;6092592;23;20350;-84
2022/08/24 04:40:04;;;;;;;21.23;18.45;;;17.00;99.90;;;;;;6093524;23;20020;-84
2022/08/24 04:42:30;;;;;;;22.08;19.67;;;17.00;99.90;;;;;;6092679;23;20057;-84
2022/08/24 04:44:56;;;;;;;19.88;17.80;;;17.00;99.90;;;;;;6092956;23;20017;-84
2022/08/24 04:47:21;;;;;;;13.32;12.02;;;17.00;99.90;;;;;;6116249;23;20022;-84
2022/08/24 04:49:47;;;;;;;9.63;7.88;;;17.00;99.90;;;;;;6093711;23;20092;-83
2022/08/24 04:52:13;;;;;;;14.45;12.95;;;17.00;99.90;;;;;;6091646;23;20441;-84
2022/08/24 04:54:39;;;;;;;10.73;9.63;;;17.00;99.90;;;;;;6093524;23;20014;-84
2022/08/24 04:57:04;;;;;;;13.13;11.10;;;17.00;99.90;;;;;;6092720;23;20547;-85
2022/08/24 04:59:30;;;;;;;7.13;6.43;;;17.00;99.90;;;;;;6092175;23;20022;-84
2022/08/24 05:01:56;;;;;;;7.20;6.43;;;17.00;99.90;;;;;;6093057;23;20033;-83
2022/08/24 05:04:21;;;;;;;11.05;9.88;;;17.00;99.90;;;;;;6116636;23;20024;-83
2022/08/24 05:06:47;;;;;;;8.45;7.00;;;17.00;99.90;;;;;;6092180;23;20018;-83
2022/08/24 05:09:13;;;;;;;13.90;9.82;;;17.10;99.90;;;;;;6116933;23;20072;-84
2022/08/24 05:11:40;;;;;;;18.58;16.60;;;17.10;99.90;;;;;;6092953;23;20069;-83
2022/08/24 05:14:06;;;;;;;26.10;21.08;;;17.20;99.90;;;;;;6116787;23;20060;-84
2022/08/24 05:16:33;;;;;;;21.92;19.65;;;17.30;99.90;;;;;;6092653;23;20462;-84
2022/08/24 05:19:00;;;;;;;22.15;17.92;;;17.40;99.90;;;;;;6092337;23;20490;-85
2022/08/24 05:21:27;;;;;;;22.88;20.40;;;17.40;99.90;;;;;;6092463;23;20022;-85
2022/08/24 05:23:53;;;;;;;24.33;19.42;;;17.40;99.90;;;;;;6093577;23;20097;-84
2022/08/24 05:26:24;;;;;;;21.15;18.92;;;17.50;99.90;;;;;;6092918;23;20053;-84
2022/08/24 05:28:56;;;;;;;22.05;18.83;;;17.50;99.90;;;;;;6118460;23;20473;-85
2022/08/24 05:31:24;;;;;;;22.20;18.15;;;17.60;99.90;;;;;;6119418;23;20029;-84
2022/08/24 05:33:51;;;;;;;20.80;17.52;;;17.60;99.90;;;;;;6120279;23;20018;-83
2022/08/24 05:36:21;;;;;;;20.80;18.60;;;17.60;99.90;;;;;;6120281;23;20041;-85
2022/08/24 05:38:48;;;;;;;25.95;23.17;;;17.70;99.90;;;;;;6096571;23;20056;-84
2022/08/24 05:41:15;;;;;;;29.50;23.75;;;17.80;99.90;;;;;;6119443;23;20121;-84
2022/08/24 05:43:41;;;;;;;28.75;25.23;;;17.80;99.90;;;;;;6120231;23;20014;-84
2022/08/24 05:46:07;;;;;;;30.52;27.27;;;17.90;99.90;;;;;;6095784;23;20022;-83
2022/08/24 05:48:35;;;;;;;48.58;36.78;;;18.00;99.90;;;;;;6095004;23;20398;-84
2022/08/24 05:51:03;;;;;;;38.72;32.67;;;18.10;99.90;;;;;;6096646;23;20514;-84
2022/08/24 05:53:29;;;;;;;44.08;33.25;;;18.10;99.90;;;;;;6095665;23;20024;-84
2022/08/24 05:55:54;;;;;;;33.95;29.17;;;18.20;99.90;;;;;;6096062;23;20018;-84
2022/08/24 05:58:20;;;;;;;28.83;24.83;;;18.40;99.90;;;;;;6119325;23;20077;-84
2022/08/24 06:00:46;;;;;;;29.65;22.48;;;18.40;99.90;;;;;;6120536;23;20036;-84
2022/08/24 06:03:13;;;;;;;26.35;23.50;;;18.50;99.90;;;;;;6119666;23;20168;-84
2022/08/24 06:05:40;;;;;;;29.02;25.52;;;18.60;99.90;;;;;;6095567;23;20077;-85
2022/08/24 06:08:07;;;;;;;33.67;27.58;;;18.70;99.90;;;;;;6119962;23;20065;-83
2022/08/24 06:10:42;;;;;;;31.55;25.92;;;18.80;99.90;;;;;;6095513;23;20097;-84
2022/08/24 06:13:08;;;;;;;35.35;29.13;;;18.90;99.90;;;;;;6095255;23;20049;-84
2022/08/24 06:15:34;;;;;;;38.45;30.23;;;19.00;99.90;;;;;;6118630;23;20104;-84
2022/08/24 06:18:01;;;;;;;34.55;30.38;;;19.10;99.90;;;;;;6096522;23;20014;-84
2022/08/24 06:20:26;;;;;;;42.55;33.75;;;19.20;99.90;;;;;;6120051;23;20026;-86
2022/08/24 06:22:52;;;;;;;46.25;37.92;;;19.30;99.90;;;;;;6097125;23;20018;-86
2022/08/24 06:28:02;;;;;;;45.40;39.20;;;19.50;99.90;;;;;;6121624;23;20026;-87
2022/08/24 06:30:28;;;;;;;49.15;37.78;;;19.60;99.90;;;;;;6096512;23;20018;-86
2022/08/24 06:32:58;;;;;;;53.30;38.50;;;19.70;99.90;;;;;;6121301;23;20017;-86
2022/08/24 06:35:24;;;;;;;44.33;38.13;;;19.80;99.90;;;;;;6121651;23;20018;-86
2022/08/24 06:37:50;;;;;;;51.60;36.90;;;19.90;99.90;;;;;;6120780;23;20807;-86
2022/08/24 06:40:19;;;;;;;54.78;41.28;;;20.00;99.90;;;;;;6095204;23;20050;-85
2022/08/24 06:42:45;;;;;;;52.75;38.45;;;20.00;99.90;;;;;;6094449;23;20026;-86
2022/08/24 06:45:11;;;;;;;47.08;37.88;;;20.10;99.90;;;;;;6093561;23;20049;-86
2022/08/24 06:47:37;;;;;;;45.47;37.45;;;20.20;99.90;;;;;;6094123;23;20122;-86
2022/08/24 06:50:05;;;;;;;47.92;37.50;;;20.30;99.90;;;;;;6095132;23;20057;-87
2022/08/24 06:52:31;;;;;;;46.25;37.08;;;20.30;99.90;;;;;;6093660;23;20343;-87
2022/08/24 06:54:57;;;;;;;46.15;36.45;;;20.40;99.90;;;;;;6119754;23;20022;-86
2022/08/24 06:57:23;;;;;;;48.78;34.47;;;20.50;99.90;;;;;;6092575;23;20072;-87
2022/08/24 06:59:49;;;;;;;39.22;33.40;;;20.60;99.90;;;;;;6095490;23;20054;-87
2022/08/24 07:02:17;;;;;;;44.45;35.00;;;20.70;99.90;;;;;;6093901;23;20033;-87
2022/08/24 07:04:44;;;;;;;37.33;33.30;;;20.80;99.90;;;;;;6094106;23;20029;-87
2022/08/24 07:07:11;;;;;;;38.40;32.88;;;20.90;99.90;;;;;;6094421;23;20025;-87
2022/08/24 07:09:36;;;;;;;33.78;28.88;;;21.10;99.90;;;;;;6094290;23;20020;-87
2022/08/24 07:12:03;;;;;;;33.95;28.85;;;21.10;99.90;;;;;;6093755;23;20104;-86
2022/08/24 07:14:29;;;;;;;28.27;22.52;;;21.20;99.90;;;;;;6094071;23;20072;-85
2022/08/24 07:16:56;;;;;;;27.75;22.02;;;21.30;99.90;;;;;;6094671;23;20485;-86
2022/08/24 07:19:22;;;;;;;30.42;19.77;;;21.40;99.90;;;;;;6093086;23;20022;-88
2022/08/24 07:21:47;;;;;;;26.17;19.80;;;21.50;99.90;;;;;;6094900;23;20157;-87
2022/08/24 07:24:14;;;;;;;18.60;13.57;;;21.60;99.90;;;;;;6094754;23;20137;-86
2022/08/24 07:26:40;;;;;;;19.15;14.88;;;21.70;99.90;;;;;;6092224;23;20371;-84
2022/08/24 07:29:13;;;;;;;27.23;15.05;;;21.90;99.90;;;;;;6117821;23;20018;-85
2022/08/24 07:31:41;;;;;;;21.77;14.73;;;22.00;99.90;;;;;;6118068;23;20740;-85
2022/08/24 07:34:08;;;;;;;25.40;14.68;;;22.20;99.90;;;;;;6117434;23;20375;-84
2022/08/24 07:36:35;;;;;;;21.60;15.95;;;22.30;99.90;;;;;;6117623;23;20018;-85
2022/08/24 07:39:01;;;;;;;24.48;14.43;;;22.50;99.90;;;;;;6118584;23;20363;-84
2022/08/24 07:41:27;;;;;;;15.60;11.68;;;22.60;99.90;;;;;;6091896;23;20022;-85
2022/08/24 07:43:55;;;;;;;15.00;10.27;;;22.70;99.90;;;;;;6093614;23;20014;-85
2022/08/24 07:46:21;;;;;;;19.05;11.10;;;22.80;99.90;;;;;;6092941;23;20014;-85
2022/08/24 07:48:47;;;;;;;14.18;9.13;;;22.90;99.90;;;;;;6092709;23;20022;-85
2022/08/24 07:51:16;;;;;;;18.00;7.20;;;22.80;99.90;;;;;;6093703;23;20039;-85
2022/08/24 07:53:42;;;;;;;12.57;8.20;;;22.90;99.90;;;;;;6115808;23;20014;-85
2022/08/24 07:56:09;;;;;;;16.55;8.25;;;23.00;99.90;;;;;;6117780;23;20101;-86
2022/08/24 07:58:35;;;;;;;12.88;7.57;;;23.00;99.90;;;;;;6092365;23;20045;-85
2022/08/24 08:01:03;;;;;;;16.30;7.72;;;23.10;99.90;;;;;;6092450;23;20022;-85
2022/08/24 08:03:32;;;;;;;18.20;7.07;;;23.20;99.90;;;;;;6093079;23;20018;-86
2022/08/24 08:06:00;;;;;;;11.55;6.47;;;23.30;99.90;;;;;;6118114;23;20041;-86
2022/08/24 08:08:26;;;;;;;10.65;7.03;;;23.30;99.90;;;;;;6091517;23;20021;-85
2022/08/24 08:10:52;;;;;;;11.70;7.70;;;23.40;99.90;;;;;;6093669;23;20077;-86
2022/08/24 08:13:18;;;;;;;12.10;6.00;;;23.50;99.90;;;;;;6092684;23;20773;-86
2022/08/24 08:15:44;;;;;;;12.70;6.55;;;23.60;99.90;;;;;;6091264;23;20022;-85
2022/08/24 08:18:11;;;;;;;10.55;5.70;;;23.70;99.90;;;;;;6117654;23;20018;-85
2022/08/24 08:20:38;;;;;;;8.80;5.25;;;23.70;99.90;;;;;;6092337;23;20451;-86
2022/08/24 08:25:51;;;;;;;12.80;5.82;;;23.80;99.90;;;;;;6121139;23;20029;-89
2022/08/24 08:28:17;;;;;;;10.80;6.30;;;24.00;99.90;;;;;;6094446;23;20022;-89
2022/08/24 08:30:44;;;;;;;13.05;6.15;;;24.10;99.90;;;;;;6093702;23;20176;-89
2022/08/24 08:33:11;;;;;;;9.15;5.68;;;24.10;99.90;;;;;;6095050;23;20120;-88
2022/08/24 08:35:38;;;;;;;13.30;5.82;;;24.20;99.90;;;;;;6094951;23;20018;-89
2022/08/24 08:38:04;;;;;;;12.05;5.70;;;24.30;99.90;;;;;;6094364;23;20470;-89
2022/08/24 08:40:56;;;;;;;14.70;5.85;;;24.40;99.90;;;;;;6093581;23;20030;-88
2022/08/24 08:43:40;;;;;;;11.48;5.20;;;24.40;99.90;;;;;;6092451;23;20495;-85
2022/08/24 08:46:24;;;;;;;8.77;5.43;;;24.50;99.90;;;;;;6117180;23;20089;-84
2022/08/24 08:49:09;;;;;;;10.18;5.13;;;24.60;99.90;;;;;;6117977;23;20033;-85
2022/08/24 08:51:55;;;;;;;8.82;5.50;;;24.70;99.90;;;;;;6092327;23;20013;-85
2022/08/24 08:54:41;;;;;;;10.55;5.95;;;24.80;99.90;;;;;;6092910;23;20054;-85
2022/08/24 08:57:20;;;;;;;8.43;4.90;;;24.80;99.90;;;;;;6115388;23;20033;-86
2022/08/24 08:59:53;;;;;;;13.73;4.47;;;24.90;99.90;;;;;;6093144;23;20541;-86
2022/08/24 09:02:48;;;;;;;12.85;5.47;;;25.10;99.90;;;;;;6088893;23;20490;-87
2022/08/24 09:05:29;;;;;;;9.95;5.35;;;25.10;99.90;;;;;;6112371;23;20097;-85
2022/08/24 09:08:10;;;;;;;11.25;5.57;;;25.10;99.90;;;;;;6113792;23;20457;-86
2022/08/24 09:10:49;;;;;;;12.65;5.82;;;25.20;99.90;;;;;;6086892;23;20100;-86
2022/08/24 09:13:42;;;;;;;13.18;5.32;;;25.30;99.90;;;;;;6088117;23;20466;-85
2022/08/24 09:16:21;;;;;;;9.73;4.35;;;25.30;99.90;;;;;;6089245;23;20018;-86
2022/08/24 09:19:29;;;;;;;11.30;4.40;;;25.40;99.90;;;;;;6064584;23;20029;-87
2022/08/24 09:22:09;;;;;;;12.52;5.18;;;25.40;99.90;;;;;;6066368;23;20018;-86
2022/08/24 09:24:41;;;;;;;12.00;4.65;;;25.50;99.90;;;;;;6065147;23;20036;-86
2022/08/24 09:27:11;;;;;;;11.40;4.05;;;25.60;99.90;;;;;;6064571;23;20432;-86
2022/08/24 09:29:46;;;;;;;9.18;3.85;;;25.70;99.90;;;;;;6065338;23;20041;-85
2022/08/24 09:32:30;;;;;;;14.15;3.88;;;25.70;99.90;;;;;;6087664;23;20029;-84
2022/08/24 09:35:02;;;;;;;10.43;3.90;;;25.70;99.90;;;;;;6092826;23;20018;-85
2022/08/24 09:37:31;;;;;;;7.70;4.70;;;25.90;99.90;;;;;;6092286;23;20022;-85
2022/08/24 09:40:16;;;;;;;10.45;3.42;;;26.00;99.90;;;;;;6092352;23;20261;-85
2022/08/24 09:43:14;;;;;;;11.38;3.60;;;26.10;99.90;;;;;;6092256;23;20022;-84
2022/08/24 09:45:59;;;;;;;9.43;4.68;;;26.20;99.90;;;;;;6068615;23;20149;-85
2022/08/24 09:48:46;;;;;;;7.95;3.33;;;26.20;99.90;;;;;;6091254;23;20075;-85
2022/08/24 09:51:45;;;;;;;10.10;4.07;;;26.20;99.90;;;;;;6092730;23;20025;-85
2022/08/24 09:54:39;;;;;;;11.35;4.88;;;26.30;99.90;;;;;;6091687;23;20054;-85
2022/08/24 09:57:28;;;;;;;5.35;2.78;;;26.30;99.90;;;;;;6091607;23;20080;-85
2022/08/24 10:00:09;;;;;;;7.38;2.88;;;26.40;99.90;;;;;;6066128;23;20018;-85
2022/08/24 10:02:48;;;;;;;10.45;3.53;;;26.40;99.90;;;;;;6088359;23;20466;-85
2022/08/24 10:05:28;;;;;;;10.13;3.33;;;26.50;99.90;;;;;;6065002;23;20464;-85
2022/08/24 10:08:08;;;;;;;7.80;2.75;;;26.50;99.90;;;;;;6064271;23;20397;-85
2022/08/24 10:11:08;;;;;;;9.07;3.17;;;26.60;99.90;;;;;;6088294;23;20521;-85
2022/08/24 10:13:56;;;;;;;9.18;3.53;;;26.70;99.90;;;;;;6065045;23;20387;-86
2022/08/24 10:16:27;;;;;;;8.15;3.40;;;26.70;99.90;;;;;;6064274;23;20088;-85
2022/08/24 10:19:09;;;;;;;6.80;3.42;;;26.80;99.90;;;;;;6091343;23;20022;-85
2022/08/24 10:21:51;;;;;;;8.60;2.50;;;26.90;99.90;;;;;;6090411;23;20097;-86
2022/08/24 10:24:19;;;;;;;6.93;2.67;;;26.90;99.90;;;;;;6067105;23;20018;-86
2022/08/24 10:27:22;;;;;;;8.32;3.35;;;27.10;99.90;;;;;;6090847;23;20171;-86
2022/08/24 10:30:08;;;;;;;6.70;2.38;;;27.10;99.90;;;;;;6066630;23;20451;-86
2022/08/24 10:32:34;;;;;;;5.65;2.03;;;27.20;99.90;;;;;;6067452;23;20395;-85
2022/08/24 10:35:03;;;;;;;9.63;2.85;;;27.20;99.90;;;;;;6094714;23;20026;-86
2022/08/24 10:39:39;;;;;;;8.70;2.70;;;27.30;99.90;;;;;;6092881;23;20053;-85
2022/08/24 10:40:56;;;;;;;8.68;3.00;;;27.30;99.90;;;;;;6093798;23;20022;-85
2022/08/24 10:43:36;;;;;;;8.32;2.33;;;27.30;99.90;;;;;;6092017;23;20321;-85
2022/08/24 10:46:37;;;;;;;6.90;2.60;;;27.30;99.90;;;;;;6093960;23;20058;-86
2022/08/24 10:49:23;;;;;;;6.00;2.10;;;27.30;99.90;;;;;;6094295;23;20052;-85
2022/08/24 10:52:00;;;;;;;8.73;2.13;;;27.40;99.90;;;;;;6094030;23;20030;-84
2022/08/24 10:54:26;;;;;;;6.50;1.73;;;27.40;99.90;;;;;;6069844;23;20014;-85
2022/08/24 10:57:04;;;;;;;12.88;1.80;;;27.50;99.90;;;;;;6092908;23;20014;-85
2022/08/24 10:59:54;;;;;;;8.15;1.60;;;27.50;99.90;;;;;;6094097;23;20075;-85
2022/08/24 11:02:33;;;;;;;5.18;1.40;;;27.60;99.90;;;;;;6068591;23;20108;-86
2022/08/24 11:05:01;;;;;;;15.43;1.95;;;27.60;99.90;;;;;;6093458;23;20018;-86
2022/08/24 11:07:27;;;;;;;3.08;1.52;;;27.80;99.90;;;;;;6093038;23;20471;-85
2022/08/24 11:09:57;;;;;;;6.53;1.63;;;28.00;99.90;;;;;;6091978;23;20022;-86
2022/08/24 11:12:25;;;;;;;9.40;1.88;;;28.10;99.90;;;;;;6092032;23;20057;-86
2022/08/24 11:14:52;;;;;;;5.65;1.55;;;28.20;99.90;;;;;;6093943;23;20455;-86
2022/08/24 11:17:22;;;;;;;6.47;1.90;;;28.20;99.90;;;;;;6117523;23;20040;-86
2022/08/24 11:19:49;;;;;;;5.90;1.70;;;28.10;99.90;;;;;;6117462;23;20017;-85
2022/08/24 11:22:24;;;;;;;5.80;1.50;;;28.10;99.90;;;;;;6117699;23;20026;-86
2022/08/24 11:24:56;;;;;;;5.07;1.50;;;28.00;99.90;;;;;;6117311;23;20347;-86
2022/08/24 11:27:34;;;;;;;6.90;2.20;;;27.80;99.90;;;;;;6092584;23;20374;-86
2022/08/24 11:30:08;;;;;;;5.80;1.60;;;27.70;99.90;;;;;;6117005;23;20288;-86
2022/08/24 11:32:42;;;;;;;9.15;1.75;;;27.80;99.90;;;;;;6116308;23;20035;-86
2022/08/24 11:35:35;;;;;;;4.05;1.80;;;28.00;99.90;;;;;;6093416;23;20024;-86
2022/08/24 11:38:14;;;;;;;8.02;1.83;;;28.30;99.90;;;;;;6118583;23;20362;-86
2022/08/24 11:40:42;;;;;;;9.75;1.52;;;28.50;99.90;;;;;;6092839;23;20339;-86
2022/08/24 11:43:15;;;;;;;3.05;1.40;;;28.60;99.90;;;;;;6093207;23;20029;-86
2022/08/24 11:46:08;;;;;;;5.85;1.45;;;28.70;99.90;;;;;;6093316;23;20014;-87
2022/08/24 11:48:39;;;;;;;;;;;28.80;99.90;;;;;;6094264;23;20033;-86
2022/08/24 11:51:26;;;;;;;7.22;1.85;;;28.70;99.90;;;;;;6093854;23;19916;-86
2022/08/24 11:54:08;;;;;;;8.80;1.60;;;28.60;99.90;;;;;;6093249;23;20029;-86
2022/08/24 11:56:39;;;;;;;3.83;1.30;;;28.40;99.90;;;;;;6093846;23;20459;-86
2022/08/24 11:59:27;;;;;;;2.97;1.10;;;28.30;99.90;;;;;;6117216;23;20042;-86
2022/08/24 12:01:58;;;;;;;4.43;1.10;;;28.30;99.90;;;;;;6092423;23;20573;-86
2022/08/24 12:04:35;;;;;;;4.80;0.95;;;28.50;99.90;;;;;;6117485;23;20020;-86
2022/08/24 12:07:25;;;;;;;4.40;1.20;;;28.70;99.90;;;;;;6092984;23;20029;-86
2022/08/24 12:09:57;;;;;;;5.30;0.90;;;28.90;99.90;;;;;;6093286;23;20085;-86
2022/08/24 12:12:40;;;;;;;3.13;1.10;;;28.70;99.90;;;;;;6092774;23;20117;-87
2022/08/24 12:15:17;;;;;;;2.58;0.90;;;28.60;99.90;;;;;;6117743;23;20014;-87
2022/08/24 12:18:03;;;;;;;5.68;1.00;;;28.50;99.90;;;;;;6117816;23;20088;-86
2022/08/24 12:20:41;;;;;;;3.60;0.98;;;28.60;99.90;;;;;;6093231;23;20428;-86
2022/08/24 12:23:15;;;;;;;6.28;1.20;;;28.80;99.90;;;;;;6092391;23;20030;-87
2022/08/24 12:26:00;;;;;;;4.43;1.08;;;29.00;99.90;;;;;;6093425;23;20018;-86
2022/08/24 12:28:34;;;;;;;8.70;1.55;;;29.10;99.90;;;;;;6115946;23;20025;-87
2022/08/24 12:31:08;;;;;;;9.30;1.33;;;29.20;99.90;;;;;;6117352;23;20057;-86
2022/08/24 12:33:36;;;;;;;5.35;1.20;;;29.30;99.90;;;;;;6093232;23;20350;-87
2022/08/24 12:36:22;;;;;;;9.13;1.20;;;29.40;99.90;;;;;;6117328;23;20089;-87
2022/08/24 12:39:00;;;;;;;3.40;0.80;;;29.40;99.90;;;;;;6093511;23;20348;-87
2022/08/24 12:41:32;;;;;;;4.00;0.88;;;29.40;99.90;;;;;;6116757;23;20050;-87
2022/08/24 12:44:08;;;;;;;6.85;1.15;;;29.40;99.90;;;;;;6092280;23;20403;-87
2022/08/24 12:46:35;;;;;;;1.67;0.70;;;29.40;99.90;;;;;;6093041;23;20053;-88
2022/08/24 12:49:10;;;;;;;2.70;0.95;;;29.40;99.90;;;;;;6117284;23;20049;-87
2022/08/24 12:51:45;;;;;;;3.13;0.90;;;29.40;99.90;;;;;;6093120;23;20093;-87
2022/08/24 12:54:36;;;;;;;2.67;0.80;;;29.30;99.90;;;;;;6117525;23;20022;-87
2022/08/24 12:57:44;;;;;;;6.43;1.00;;;29.10;99.90;;;;;;6091801;23;20014;-84
2022/08/24 13:00:20;;;;;;;7.75;1.00;;;28.90;99.90;;;;;;6092999;23;20052;-85